Time;durP1;ratioP1;P1;durP2;ratioP2;P2;SDS_P1;SDS_P2;PMS_P1;PMS_P2;Temp;Humidity;BMP_temperature;BMP_pressure;BME280_temperature;BME280_humidity;BME280_pressure;Samples;Min_cycle;Max_cycle;Signal;HPM_P1;HPM_P2
2023/10/26 00:00:39;;;;;;;2.92;0.98;;;;;;;;;;5009221;28;20054;-71
2023/10/26 00:03:06;;;;;;;2.58;0.93;;;;;;;;;;5008667;28;20052;-71
2023/10/26 00:05:33;;;;;;;1.30;0.70;;;;;;;;;;5009670;28;20046;-71
2023/10/26 00:08:00;;;;;;;1.52;0.73;;;;;;;;;;5009011;28;20100;-70
2023/10/26 00:10:26;;;;;;;1.42;0.73;;;;;;;;;;5009058;28;20581;-70
2023/10/26 00:12:53;;;;;;;2.08;0.85;;;;;;;;;;5009196;28;20052;-70
2023/10/26 00:15:20;;;;;;;3.60;1.00;;;;;;;;;;5009262;28;20129;-72
2023/10/26 00:17:47;;;;;;;2.65;0.88;;;;;;;;;;5009232;28;20061;-70
2023/10/26 00:20:14;;;;;;;1.38;0.73;;;;;;;;;;5009065;28;20061;-70
2023/10/26 00:22:40;;;;;;;2.35;0.88;;;;;;;;;;5009253;28;20041;-70
2023/10/26 00:25:07;;;;;;;2.70;1.00;;;;;;;;;;5008852;28;20052;-71
2023/10/26 00:27:40;;;;;;;2.22;1.00;;;;;;;;;;5009095;28;20140;-73
2023/10/26 00:30:13;;;;;;;2.58;1.05;;;;;;;;;;5009210;28;20053;-71
2023/10/26 00:32:40;;;;;;;2.88;1.00;;;;;;;;;;5008802;28;20049;-71
2023/10/26 00:35:08;;;;;;;1.92;0.80;;;;;;;;;;5009075;28;20054;-73
2023/10/26 00:37:35;;;;;;;2.13;0.90;;;;;;;;;;5008999;28;20046;-71
2023/10/26 00:40:02;;;;;;;3.80;1.00;;;;;;;;;;5008818;28;20177;-70
2023/10/26 00:42:29;;;;;;;1.77;0.63;;;;;;;;;;5008574;28;20133;-72
2023/10/26 00:44:56;;;;;;;1.17;0.80;;;;;;;;;;5009033;28;20046;-71
2023/10/26 00:47:25;;;;;;;1.73;0.88;;;;;;;;;;5008694;28;20626;-72
2023/10/26 00:49:53;;;;;;;1.50;0.77;;;;;;;;;;5008691;28;20490;-71
2023/10/26 00:52:22;;;;;;;3.60;1.20;;;;;;;;;;5008641;28;20409;-71
2023/10/26 00:54:49;;;;;;;2.25;0.77;;;;;;;;;;5008309;28;20042;-71
2023/10/26 00:57:19;;;;;;;1.60;0.80;;;;;;;;;;5008516;28;20046;-71
2023/10/26 00:59:47;;;;;;;2.15;1.00;;;;;;;;;;5008773;28;20046;-71
2023/10/26 01:02:16;;;;;;;2.63;0.93;;;;;;;;;;5008736;28;20100;-70
2023/10/26 01:04:43;;;;;;;1.73;0.80;;;;;;;;;;5008674;28;20050;-71
2023/10/26 01:07:10;;;;;;;2.45;1.08;;;;;;;;;;5008853;28;20396;-71
2023/10/26 01:09:37;;;;;;;4.78;1.15;;;;;;;;;;5007999;28;20056;-71
2023/10/26 01:12:04;;;;;;;2.65;0.90;;;;;;;;;;5008402;28;20062;-72
2023/10/26 01:14:31;;;;;;;4.57;0.90;;;;;;;;;;5011996;28;20108;-70
2023/10/26 01:16:58;;;;;;;1.15;0.80;;;;;;;;;;5012612;28;20115;-70
2023/10/26 01:19:38;;;;;;;2.78;1.00;;;;;;;;;;5012354;28;20046;-70
2023/10/26 01:22:06;;;;;;;1.48;0.85;;;;;;;;;;5012710;28;20053;-71
2023/10/26 01:24:33;;;;;;;2.28;1.00;;;;;;;;;;5010698;28;20577;-72
2023/10/26 01:27:00;;;;;;;1.17;0.50;;;;;;;;;;5012641;28;20129;-71
2023/10/26 01:29:27;;;;;;;2.30;0.82;;;;;;;;;;5011848;28;20136;-71
2023/10/26 01:31:54;;;;;;;1.10;0.60;;;;;;;;;;5012267;28;20053;-72
2023/10/26 01:34:20;;;;;;;3.70;0.90;;;;;;;;;;5012114;28;20057;-71
2023/10/26 01:36:48;;;;;;;1.20;0.63;;;;;;;;;;5012400;28;20053;-70
2023/10/26 01:39:18;;;;;;;1.38;0.60;;;;;;;;;;5010506;28;20057;-71
2023/10/26 01:41:46;;;;;;;1.75;0.88;;;;;;;;;;5011629;28;20073;-73
2023/10/26 01:44:13;;;;;;;2.10;0.75;;;;;;;;;;5012142;28;20050;-73
2023/10/26 01:46:40;;;;;;;1.33;0.70;;;;;;;;;;5011668;28;20046;-73
2023/10/26 01:49:07;;;;;;;0.63;0.52;;;;;;;;;;5011977;28;20057;-72
2023/10/26 01:51:33;;;;;;;0.77;0.43;;;;;;;;;;5011561;28;20053;-70
2023/10/26 01:54:00;;;;;;;2.58;0.60;;;;;;;;;;5016937;28;20045;-71
2023/10/26 01:56:27;;;;;;;1.38;0.60;;;;;;;;;;5031514;28;20095;-71
2023/10/26 01:58:53;;;;;;;2.75;0.70;;;;;;;;;;5031572;28;20309;-71
2023/10/26 02:01:20;;;;;;;3.55;0.80;;;;;;;;;;5031076;28;20053;-73
2023/10/26 02:03:47;;;;;;;1.40;0.63;;;;;;;;;;5031283;28;20488;-72
2023/10/26 02:06:14;;;;;;;1.40;0.70;;;;;;;;;;5031244;28;20612;-73
2023/10/26 02:08:41;;;;;;;1.52;0.50;;;;;;;;;;5030785;28;20131;-71
2023/10/26 02:11:11;;;;;;;1.77;0.63;;;;;;;;;;5030724;28;20057;-71
2023/10/26 02:13:40;;;;;;;2.72;0.60;;;;;;;;;;5030469;28;20033;-70
2023/10/26 02:16:07;;;;;;;1.27;0.60;;;;;;;;;;5028373;28;20045;-71
2023/10/26 02:18:34;;;;;;;1.45;0.80;;;;;;;;;;5030456;28;20041;-70
2023/10/26 02:21:01;;;;;;;1.90;0.80;;;;;;;;;;5030082;28;20528;-70
2023/10/26 02:23:28;;;;;;;3.08;0.70;;;;;;;;;;5029601;28;20045;-71
2023/10/26 02:25:55;;;;;;;0.90;0.55;;;;;;;;;;5029373;28;20462;-71
2023/10/26 02:28:23;;;;;;;1.15;0.57;;;;;;;;;;5030241;28;20037;-71
2023/10/26 02:30:49;;;;;;;1.23;0.65;;;;;;;;;;5030260;28;20489;-71
2023/10/26 02:33:16;;;;;;;2.47;0.70;;;;;;;;;;5030215;28;20045;-71
2023/10/26 02:35:43;;;;;;;2.53;0.60;;;;;;;;;;5030464;28;20046;-71
2023/10/26 02:38:09;;;;;;;1.15;0.55;;;;;;;;;;5029874;28;20046;-71
2023/10/26 02:40:38;;;;;;;1.13;0.50;;;;;;;;;;5029965;28;20041;-70
2023/10/26 02:43:04;;;;;;;0.85;0.50;;;;;;;;;;5029953;28;20053;-71
2023/10/26 02:45:31;;;;;;;1.80;0.68;;;;;;;;;;5030526;28;20409;-71
2023/10/26 02:47:59;;;;;;;0.60;0.50;;;;;;;;;;5030364;28;20452;-70
2023/10/26 02:50:26;;;;;;;1.25;0.60;;;;;;;;;;5030254;28;20052;-71
2023/10/26 02:52:52;;;;;;;0.63;0.30;;;;;;;;;;5030741;28;20124;-72
2023/10/26 02:55:19;;;;;;;2.10;0.68;;;;;;;;;;5029955;28;20602;-71
2023/10/26 02:57:46;;;;;;;2.20;0.70;;;;;;;;;;5030155;28;20056;-72
2023/10/26 03:00:14;;;;;;;2.50;0.90;;;;;;;;;;5029945;28;20050;-72
2023/10/26 03:02:43;;;;;;;1.77;0.77;;;;;;;;;;5030296;28;20497;-70
2023/10/26 03:05:10;;;;;;;2.50;0.65;;;;;;;;;;5030095;28;20082;-71
2023/10/26 03:07:37;;;;;;;1.35;0.70;;;;;;;;;;5030265;28;20054;-71
2023/10/26 03:10:05;;;;;;;1.80;0.68;;;;;;;;;;5029729;28;20046;-72
2023/10/26 03:12:32;;;;;;;0.70;0.50;;;;;;;;;;5029653;28;20609;-71
2023/10/26 03:14:59;;;;;;;1.35;0.63;;;;;;;;;;5030052;28;20053;-70
2023/10/26 03:17:26;;;;;;;1.33;0.60;;;;;;;;;;5030225;28;20045;-72
2023/10/26 03:19:53;;;;;;;0.77;0.50;;;;;;;;;;5029569;28;20060;-70
2023/10/26 03:22:20;;;;;;;1.30;0.50;;;;;;;;;;5029821;28;20081;-72
2023/10/26 03:24:49;;;;;;;0.90;0.50;;;;;;;;;;5029673;28;20065;-71
2023/10/26 03:27:15;;;;;;;1.67;0.60;;;;;;;;;;5029875;28;20561;-73
2023/10/26 03:29:45;;;;;;;1.50;0.60;;;;;;;;;;5029494;28;20056;-70
2023/10/26 03:32:14;;;;;;;0.98;0.50;;;;;;;;;;5029576;28;20046;-71
2023/10/26 03:34:40;;;;;;;1.05;0.50;;;;;;;;;;5029184;28;20049;-72
2023/10/26 03:37:08;;;;;;;0.63;0.40;;;;;;;;;;5029471;28;20050;-71
2023/10/26 03:39:35;;;;;;;1.00;0.40;;;;;;;;;;5029344;28;20049;-72
2023/10/26 03:42:02;;;;;;;0.98;0.60;;;;;;;;;;5029263;28;20061;-71
2023/10/26 03:44:29;;;;;;;1.45;0.57;;;;;;;;;;5029316;28;20068;-71
2023/10/26 03:46:56;;;;;;;2.42;0.88;;;;;;;;;;5029528;28;20052;-71
2023/10/26 03:49:23;;;;;;;1.98;0.98;;;;;;;;;;5029341;28;20060;-71
2023/10/26 03:51:49;;;;;;;0.70;0.60;;;;;;;;;;5029029;28;20057;-71
2023/10/26 03:54:16;;;;;;;1.63;1.00;;;;;;;;;;5028873;28;20053;-72
2023/10/26 03:56:43;;;;;;;5.28;0.90;;;;;;;;;;5029596;28;20056;-70
2023/10/26 03:59:10;;;;;;;2.35;0.80;;;;;;;;;;5028888;28;20449;-70
2023/10/26 04:01:36;;;;;;;1.30;0.68;;;;;;;;;;5029163;28;20045;-70
2023/10/26 04:04:03;;;;;;;3.20;0.88;;;;;;;;;;5029469;28;20100;-72
2023/10/26 04:06:30;;;;;;;1.80;0.80;;;;;;;;;;5029104;28;20067;-71
2023/10/26 04:08:57;;;;;;;1.98;0.90;;;;;;;;;;5028360;28;20076;-70
2023/10/26 04:11:24;;;;;;;1.67;0.88;;;;;;;;;;5028291;28;20053;-71
2023/10/26 04:13:53;;;;;;;2.15;0.77;;;;;;;;;;5028807;28;20068;-71
2023/10/26 04:16:21;;;;;;;1.63;0.80;;;;;;;;;;5028734;28;20049;-71
2023/10/26 04:18:48;;;;;;;2.40;0.70;;;;;;;;;;5028975;28;20053;-71
2023/10/26 04:21:14;;;;;;;3.10;1.15;;;;;;;;;;5028676;28;20089;-70
2023/10/26 04:23:41;;;;;;;3.85;0.90;;;;;;;;;;5028385;28;20140;-71
2023/10/26 04:26:12;;;;;;;1.92;1.00;;;;;;;;;;5028644;28;20050;-71
2023/10/26 04:28:40;;;;;;;1.85;1.10;;;;;;;;;;5028666;28;20045;-70
2023/10/26 04:31:18;;;;;;;4.22;1.02;;;;;;;;;;5028402;28;20520;-72
2023/10/26 04:33:45;;;;;;;2.40;1.00;;;;;;;;;;5028396;28;20081;-71
2023/10/26 04:36:12;;;;;;;2.50;0.80;;;;;;;;;;5027980;28;20520;-71
2023/10/26 04:38:39;;;;;;;2.22;0.95;;;;;;;;;;5027805;28;20042;-70
2023/10/26 04:41:06;;;;;;;4.57;1.30;;;;;;;;;;5028007;28;20080;-70
2023/10/26 04:43:32;;;;;;;1.77;0.98;;;;;;;;;;5027905;28;20048;-71
2023/10/26 04:45:59;;;;;;;4.32;1.30;;;;;;;;;;5027630;28;20049;-71
2023/10/26 04:48:26;;;;;;;3.15;1.20;;;;;;;;;;5031964;28;20521;-70
2023/10/26 04:50:52;;;;;;;1.83;1.00;;;;;;;;;;5034237;28;20041;-71
2023/10/26 04:53:19;;;;;;;4.25;1.00;;;;;;;;;;5034082;28;20095;-71
2023/10/26 04:55:46;;;;;;;3.95;1.30;;;;;;;;;;5034595;28;20099;-71
2023/10/26 04:58:13;;;;;;;2.95;1.10;;;;;;;;;;5034682;28;20425;-71
2023/10/26 05:00:40;;;;;;;2.83;1.30;;;;;;;;;;5034335;28;20041;-70
2023/10/26 05:03:06;;;;;;;2.15;1.10;;;;;;;;;;5034824;28;20077;-71
2023/10/26 05:05:33;;;;;;;3.15;1.10;;;;;;;;;;5034600;28;20536;-71
2023/10/26 05:08:00;;;;;;;3.55;0.95;;;;;;;;;;5034305;28;20046;-72
2023/10/26 05:10:27;;;;;;;2.25;1.10;;;;;;;;;;5034957;28;20045;-70
2023/10/26 05:12:54;;;;;;;3.00;1.13;;;;;;;;;;5034855;28;20490;-72
2023/10/26 05:15:21;;;;;;;3.90;1.27;;;;;;;;;;5035083;28;20053;-71
2023/10/26 05:17:48;;;;;;;2.00;1.08;;;;;;;;;;5035141;28;20064;-72
2023/10/26 05:20:14;;;;;;;2.75;0.93;;;;;;;;;;5034696;28;20076;-70
2023/10/26 05:22:41;;;;;;;2.08;1.00;;;;;;;;;;5034610;28;20060;-71
2023/10/26 05:25:11;;;;;;;4.03;1.10;;;;;;;;;;5034534;28;20052;-70
2023/10/26 05:27:38;;;;;;;1.52;0.88;;;;;;;;;;5035051;28;20049;-71
2023/10/26 05:30:05;;;;;;;2.03;1.08;;;;;;;;;;5034635;28;20522;-70
2023/10/26 05:32:32;;;;;;;2.53;1.00;;;;;;;;;;5034479;28;20053;-70
2023/10/26 05:34:59;;;;;;;3.08;0.95;;;;;;;;;;5034979;28;20081;-69
2023/10/26 05:37:26;;;;;;;1.33;0.73;;;;;;;;;;5034846;28;20107;-71
2023/10/26 05:39:53;;;;;;;2.67;0.90;;;;;;;;;;5034484;28;20049;-70
2023/10/26 05:42:22;;;;;;;2.05;1.00;;;;;;;;;;5034214;28;20056;-69
2023/10/26 05:44:49;;;;;;;3.45;1.20;;;;;;;;;;5034948;28;20041;-71
2023/10/26 05:47:16;;;;;;;2.35;1.10;;;;;;;;;;5034325;28;20055;-71
2023/10/26 05:49:47;;;;;;;2.30;1.08;;;;;;;;;;5034932;28;20045;-70
2023/10/26 05:52:14;;;;;;;2.33;0.88;;;;;;;;;;5034414;28;20049;-70
2023/10/26 05:54:40;;;;;;;2.13;0.95;;;;;;;;;;5033997;28;20135;-70
2023/10/26 05:57:08;;;;;;;3.53;1.00;;;;;;;;;;5034246;28;20045;-71
2023/10/26 05:59:35;;;;;;;1.73;0.80;;;;;;;;;;5032726;28;20499;-70
2023/10/26 06:02:02;;;;;;;3.38;1.02;;;;;;;;;;5040126;28;20108;-72
2023/10/26 06:04:29;;;;;;;1.25;0.82;;;;;;;;;;5043239;28;20092;-72
2023/10/26 06:06:55;;;;;;;2.53;1.08;;;;;;;;;;5043010;28;20060;-72
2023/10/26 06:09:23;;;;;;;2.25;0.80;;;;;;;;;;5034061;28;20444;-70
2023/10/26 06:11:51;;;;;;;1.58;0.90;;;;;;;;;;5030790;28;20060;-71
2023/10/26 06:14:18;;;;;;;1.88;0.75;;;;;;;;;;5031117;28;20045;-69
2023/10/26 06:16:45;;;;;;;2.13;0.90;;;;;;;;;;5031217;28;20052;-72
2023/10/26 06:19:11;;;;;;;2.35;0.90;;;;;;;;;;5031371;28;20049;-71
2023/10/26 06:21:39;;;;;;;4.28;1.10;;;;;;;;;;5030830;28;20064;-71
2023/10/26 06:24:06;;;;;;;2.40;1.20;;;;;;;;;;5030774;28;20049;-72
2023/10/26 06:26:33;;;;;;;4.07;1.10;;;;;;;;;;5030594;28;20512;-72
2023/10/26 06:29:00;;;;;;;3.05;1.00;;;;;;;;;;5031175;28;20045;-71
2023/10/26 06:31:26;;;;;;;5.28;1.63;;;;;;;;;;5032557;28;20049;-71
2023/10/26 06:33:53;;;;;;;4.53;1.20;;;;;;;;;;5030400;28;20095;-71
2023/10/26 06:36:20;;;;;;;4.22;1.10;;;;;;;;;;5030295;28;20050;-73
2023/10/26 06:38:47;;;;;;;2.60;1.40;;;;;;;;;;5030748;28;20046;-72
2023/10/26 06:41:13;;;;;;;4.35;1.48;;;;;;;;;;5030581;28;20137;-73
2023/10/26 06:43:40;;;;;;;3.58;1.10;;;;;;;;;;5031562;28;20053;-70
2023/10/26 06:46:07;;;;;;;3.85;1.30;;;;;;;;;;5030444;28;20049;-71
2023/10/26 06:48:33;;;;;;;4.72;1.25;;;;;;;;;;5030793;28;20130;-70
2023/10/26 06:51:02;;;;;;;4.40;1.33;;;;;;;;;;5030161;28;20049;-71
2023/10/26 06:53:30;;;;;;;3.42;1.35;;;;;;;;;;5030147;28;20076;-73
2023/10/26 06:55:57;;;;;;;5.43;1.15;;;;;;;;;;5030315;28;20769;-71
2023/10/26 06:58:24;;;;;;;3.92;1.45;;;;;;;;;;5030350;28;20417;-70
2023/10/26 07:00:52;;;;;;;5.00;1.45;;;;;;;;;;5030584;28;20049;-70
2023/10/26 07:03:19;;;;;;;2.05;0.93;;;;;;;;;;5030979;28;20049;-71
2023/10/26 07:05:47;;;;;;;1.55;0.85;;;;;;;;;;5030272;28;20046;-72
2023/10/26 07:08:15;;;;;;;3.17;1.17;;;;;;;;;;5010646;28;20049;-70
2023/10/26 07:10:42;;;;;;;1.42;0.90;;;;;;;;;;5026802;28;20173;-69
2023/10/26 07:13:09;;;;;;;1.75;0.95;;;;;;;;;;5010501;28;20041;-69
2023/10/26 07:15:36;;;;;;;1.98;0.90;;;;;;;;;;5009823;28;21160;-71
2023/10/26 07:18:04;;;;;;;1.80;0.90;;;;;;;;;;5026835;28;20461;-72
2023/10/26 07:20:32;;;;;;;2.08;0.95;;;;;;;;;;5031421;28;20051;-72
2023/10/26 07:22:58;;;;;;;1.20;0.93;;;;;;;;;;5027676;28;20077;-70
2023/10/26 07:25:25;;;;;;;1.30;0.80;;;;;;;;;;5026474;28;20045;-70
2023/10/26 07:27:52;;;;;;;2.38;1.00;;;;;;;;;;5028313;28;20048;-70
2023/10/26 07:30:18;;;;;;;2.15;1.02;;;;;;;;;;5028283;28;20411;-71
2023/10/26 07:32:45;;;;;;;3.33;1.10;;;;;;;;;;5027760;28;20045;-70
2023/10/26 07:35:14;;;;;;;3.17;1.10;;;;;;;;;;5029093;28;20049;-70
2023/10/26 07:37:41;;;;;;;1.15;0.90;;;;;;;;;;5029307;28;20049;-70
2023/10/26 07:40:17;;;;;;;5.05;1.50;;;;;;;;;;5028802;28;20080;-70
2023/10/26 07:42:56;;;;;;;3.90;1.83;;;;;;;;;;5027693;28;20061;-70
2023/10/26 07:45:25;;;;;;;3.08;1.35;;;;;;;;;;5028151;28;20057;-72
2023/10/26 07:47:54;;;;;;;6.78;1.45;;;;;;;;;;5027640;28;20116;-72
2023/10/26 07:50:28;;;;;;;2.10;1.20;;;;;;;;;;5027603;28;20406;-71
2023/10/26 07:52:56;;;;;;;2.40;1.10;;;;;;;;;;5027769;28;20053;-71
2023/10/26 07:55:22;;;;;;;5.28;1.15;;;;;;;;;;5035952;28;20045;-71
2023/10/26 07:57:49;;;;;;;2.28;0.98;;;;;;;;;;5032135;28;20046;-71
2023/10/26 08:00:16;;;;;;;1.23;0.88;;;;;;;;;;5033680;28;20060;-75
2023/10/26 08:02:43;;;;;;;2.75;0.95;;;;;;;;;;5034033;28;20066;-72
2023/10/26 08:05:11;;;;;;;1.40;0.80;;;;;;;;;;5038735;28;20060;-72
2023/10/26 08:07:38;;;;;;;2.20;0.95;;;;;;;;;;5039877;28;20083;-71
2023/10/26 08:10:06;;;;;;;2.10;0.98;;;;;;;;;;5034294;28;20064;-71
2023/10/26 08:12:33;;;;;;;4.63;1.52;;;;;;;;;;5037979;28;20064;-71
2023/10/26 08:15:02;;;;;;;1.88;1.00;;;;;;;;;;5037333;28;20103;-71
2023/10/26 08:17:48;;;;;;;3.30;1.10;;;;;;;;;;5036909;28;20057;-71
2023/10/26 08:20:15;;;;;;;2.05;1.17;;;;;;;;;;5029067;28;20041;-72
2023/10/26 08:22:42;;;;;;;3.70;1.40;;;;;;;;;;5031672;28;20052;-71
2023/10/26 08:25:09;;;;;;;2.30;1.10;;;;;;;;;;5033981;28;20045;-72
2023/10/26 08:27:36;;;;;;;3.25;1.50;;;;;;;;;;5033468;28;20591;-71
2023/10/26 08:30:06;;;;;;;2.28;1.20;;;;;;;;;;5013845;28;20261;-72
2023/10/26 08:32:33;;;;;;;3.15;1.48;;;;;;;;;;5034756;28;20049;-71
2023/10/26 08:35:00;;;;;;;2.83;1.58;;;;;;;;;;5028508;28;20050;-71
2023/10/26 08:37:27;;;;;;;2.58;1.73;;;;;;;;;;5028581;28;20076;-72
2023/10/26 08:39:56;;;;;;;2.80;1.10;;;;;;;;;;5027997;28;20103;-74
2023/10/26 08:42:23;;;;;;;3.13;1.15;;;;;;;;;;5028104;28;20424;-72
2023/10/26 08:44:49;;;;;;;2.63;1.08;;;;;;;;;;5028603;28;20049;-71
2023/10/26 08:47:18;;;;;;;1.90;1.00;;;;;;;;;;5028308;28;20077;-72
2023/10/26 08:49:49;;;;;;;1.85;0.90;;;;;;;;;;5036539;28;20057;-72
2023/10/26 08:52:36;;;;;;;3.67;0.95;;;;;;;;;;5030081;28;20096;-71
2023/10/26 08:55:05;;;;;;;2.03;1.02;;;;;;;;;;5033445;28;20046;-71
2023/10/26 08:57:31;;;;;;;2.78;1.05;;;;;;;;;;5033248;28;20049;-70
2023/10/26 08:59:59;;;;;;;2.15;1.10;;;;;;;;;;5028334;28;20056;-71
2023/10/26 09:02:26;;;;;;;4.55;1.55;;;;;;;;;;5028148;28;20448;-71
2023/10/26 09:05:03;;;;;;;2.80;1.30;;;;;;;;;;5039622;28;20045;-71
2023/10/26 09:07:30;;;;;;;4.45;1.13;;;;;;;;;;5039600;28;20073;-71
2023/10/26 09:09:57;;;;;;;2.25;1.08;;;;;;;;;;5039685;28;20045;-71
2023/10/26 09:12:24;;;;;;;3.50;1.27;;;;;;;;;;5039451;28;20103;-71
2023/10/26 09:15:02;;;;;;;2.25;0.90;;;;;;;;;;5039820;28;20255;-71
2023/10/26 09:17:30;;;;;;;1.23;0.73;;;;;;;;;;5039602;28;20077;-71
2023/10/26 09:19:58;;;;;;;2.55;1.05;;;;;;;;;;5039646;28;20091;-70
2023/10/26 09:22:38;;;;;;;1.23;0.80;;;;;;;;;;5039825;28;20053;-71
2023/10/26 09:25:10;;;;;;;2.40;0.90;;;;;;;;;;5039465;28;20046;-71
2023/10/26 09:27:38;;;;;;;1.85;0.80;;;;;;;;;;5039568;28;20069;-70
2023/10/26 09:30:05;;;;;;;2.33;0.80;;;;;;;;;;5039544;28;20046;-71
2023/10/26 09:32:32;;;;;;;2.30;0.98;;;;;;;;;;5039886;28;20197;-71
2023/10/26 09:35:01;;;;;;;1.55;0.68;;;;;;;;;;5041992;28;20053;-71
2023/10/26 09:37:27;;;;;;;0.82;0.52;;;;;;;;;;5043503;28;20392;-71
2023/10/26 09:39:55;;;;;;;0.88;0.55;;;;;;;;;;5043128;28;20053;-71
2023/10/26 09:42:41;;;;;;;4.60;0.60;;;;;;;;;;5043126;28;20387;-71
2023/10/26 09:45:08;;;;;;;1.02;0.50;;;;;;;;;;5043103;28;20045;-70
2023/10/26 09:47:36;;;;;;;1.52;0.52;;;;;;;;;;5040687;28;20430;-71
2023/10/26 09:50:04;;;;;;;1.20;0.63;;;;;;;;;;5041209;28;20049;-71
2023/10/26 09:52:31;;;;;;;2.15;0.93;;;;;;;;;;5035184;28;20099;-71
2023/10/26 09:54:59;;;;;;;1.48;0.68;;;;;;;;;;5040075;28;20076;-71
2023/10/26 09:57:41;;;;;;;3.28;1.15;;;;;;;;;;5030341;28;20045;-71
2023/10/26 10:00:13;;;;;;;2.25;0.90;;;;;;;;;;5012343;28;20109;-71
2023/10/26 10:02:41;;;;;;;2.60;1.10;;;;;;;;;;5038173;28;20107;-70
2023/10/26 10:05:35;;;;;;;2.15;0.60;;;;;;;;;;5039239;28;20102;-70
2023/10/26 10:08:02;;;;;;;3.08;0.60;;;;;;;;;;5038730;28;20057;-70
2023/10/26 10:10:29;;;;;;;2.38;0.70;;;;;;;;;;5035038;28;20052;-71
2023/10/26 10:12:55;;;;;;;2.00;0.80;;;;;;;;;;5036663;28;20333;-70
2023/10/26 10:15:38;;;;;;;2.92;0.75;;;;;;;;;;5041964;28;20065;-69
2023/10/26 10:18:09;;;;;;;3.72;0.73;;;;;;;;;;5036222;28;20122;-70
2023/10/26 10:20:40;;;;;;;2.95;0.90;;;;;;;;;;5036813;28;20313;-72
2023/10/26 10:23:08;;;;;;;1.73;0.77;;;;;;;;;;5034506;28;20513;-71
2023/10/26 10:25:50;;;;;;;2.30;0.85;;;;;;;;;;5039536;28;20112;-71
2023/10/26 10:28:18;;;;;;;2.90;1.02;;;;;;;;;;5036465;28;20054;-70
2023/10/26 10:30:50;;;;;;;1.98;0.90;;;;;;;;;;5034235;28;20425;-72
2023/10/26 10:33:23;;;;;;;2.22;1.10;;;;;;;;;;5033421;28;20136;-71
2023/10/26 10:35:59;;;;;;;2.95;1.30;;;;;;;;;;5031968;28;20076;-72
2023/10/26 10:38:25;;;;;;;3.45;1.17;;;;;;;;;;5031931;28;20055;-70
2023/10/26 10:40:55;;;;;;;2.33;0.90;;;;;;;;;;5037781;28;20461;-72
2023/10/26 10:43:34;;;;;;;3.53;1.00;;;;;;;;;;5030872;28;20049;-73
2023/10/26 10:46:16;;;;;;;2.10;0.95;;;;;;;;;;5032337;28;20168;-74
2023/10/26 10:49:03;;;;;;;1.83;0.70;;;;;;;;;;5031555;28;20045;-73
2023/10/26 10:51:31;;;;;;;2.25;0.90;;;;;;;;;;5032615;28;20068;-72
2023/10/26 10:54:00;;;;;;;2.47;0.70;;;;;;;;;;5030932;28;20052;-71
2023/10/26 10:56:47;;;;;;;2.72;0.70;;;;;;;;;;5036823;28;20042;-73
2023/10/26 10:59:27;;;;;;;1.00;0.50;;;;;;;;;;5035162;28;20383;-74
2023/10/26 11:02:11;;;;;;;1.08;0.60;;;;;;;;;;5037142;28;20053;-70
2023/10/26 11:05:10;;;;;;;1.70;0.70;;;;;;;;;;5036046;28;20041;-71
2023/10/26 11:07:47;;;;;;;2.38;0.60;;;;;;;;;;4985103;28;20061;-72
2023/10/26 11:10:14;;;;;;;1.65;0.70;;;;;;;;;;5038519;28;20059;-73
2023/10/26 11:12:50;;;;;;;2.05;0.70;;;;;;;;;;5038586;28;20385;-70
2023/10/26 11:15:17;;;;;;;4.93;1.02;;;;;;;;;;5038036;28;20049;-70
2023/10/26 11:17:44;;;;;;;1.77;1.08;;;;;;;;;;5041136;28;20115;-70
2023/10/26 11:20:34;;;;;;;4.00;1.00;;;;;;;;;;5039439;28;20126;-71
2023/10/26 11:23:01;;;;;;;1.33;0.73;;;;;;;;;;5012556;28;20050;-71
2023/10/26 11:25:28;;;;;;;1.52;0.80;;;;;;;;;;5027431;28;20084;-71
2023/10/26 11:27:54;;;;;;;1.95;0.80;;;;;;;;;;5034113;28;20056;-71
2023/10/26 11:30:21;;;;;;;1.58;0.75;;;;;;;;;;5030327;28;20060;-70
2023/10/26 11:32:48;;;;;;;1.73;1.00;;;;;;;;;;5038326;28;20049;-71
2023/10/26 11:35:16;;;;;;;2.33;0.80;;;;;;;;;;5034532;28;20242;-70
2023/10/26 11:38:02;;;;;;;2.45;0.80;;;;;;;;;;5032662;28;20057;-69
2023/10/26 11:40:30;;;;;;;2.03;0.80;;;;;;;;;;5038026;28;20261;-70
2023/10/26 11:42:59;;;;;;;2.75;0.65;;;;;;;;;;5032845;28;20091;-71
2023/10/26 11:45:27;;;;;;;1.48;0.77;;;;;;;;;;5034814;28;20478;-71
2023/10/26 11:47:58;;;;;;;1.67;0.70;;;;;;;;;;5036782;28;20045;-71
2023/10/26 11:50:28;;;;;;;2.25;0.70;;;;;;;;;;5028894;28;20136;-71
2023/10/26 11:52:59;;;;;;;2.45;0.73;;;;;;;;;;5028625;28;20050;-71
2023/10/26 11:55:29;;;;;;;3.30;0.90;;;;;;;;;;5029690;28;20406;-71
2023/10/26 11:57:58;;;;;;;2.25;0.75;;;;;;;;;;5036155;28;20627;-70
2023/10/26 12:00:26;;;;;;;3.85;0.85;;;;;;;;;;5048597;28;20044;-71
2023/10/26 12:02:54;;;;;;;6.50;1.00;;;;;;;;;;5049243;28;20079;-71
2023/10/26 12:05:23;;;;;;;2.03;0.90;;;;;;;;;;5048708;28;20308;-72
2023/10/26 12:07:50;;;;;;;2.92;0.90;;;;;;;;;;5056055;28;20047;-71
2023/10/26 12:10:19;;;;;;;3.17;1.20;;;;;;;;;;5052012;28;20049;-72
2023/10/26 12:12:46;;;;;;;2.72;1.15;;;;;;;;;;5052971;28;20061;-70
2023/10/26 12:15:12;;;;;;;3.13;1.08;;;;;;;;;;5059032;28;20061;-70
2023/10/26 12:17:39;;;;;;;2.85;0.88;;;;;;;;;;5060533;28;20090;-71
2023/10/26 12:20:08;;;;;;;2.67;1.00;;;;;;;;;;5050748;28;20076;-72
2023/10/26 12:22:34;;;;;;;2.45;0.88;;;;;;;;;;5057162;28;20048;-70
2023/10/26 12:25:06;;;;;;;4.43;0.70;;;;;;;;;;5056943;28;20088;-70
2023/10/26 12:27:34;;;;;;;4.13;0.70;;;;;;;;;;5060051;28;20268;-70
2023/10/26 12:30:21;;;;;;;2.90;0.90;;;;;;;;;;5060099;28;20068;-71
2023/10/26 12:32:48;;;;;;;1.45;0.80;;;;;;;;;;5058880;28;20049;-70
2023/10/26 12:35:14;;;;;;;2.42;1.05;;;;;;;;;;5053115;28;20048;-71
2023/10/26 12:37:41;;;;;;;2.03;0.70;;;;;;;;;;5048696;28;20041;-71
2023/10/26 12:40:08;;;;;;;3.40;0.75;;;;;;;;;;5048749;28;20045;-70
2023/10/26 12:42:35;;;;;;;2.30;0.60;;;;;;;;;;5049118;28;20060;-70
2023/10/26 12:45:03;;;;;;;1.52;0.70;;;;;;;;;;5051214;28;20256;-71
2023/10/26 12:47:29;;;;;;;0.75;0.50;;;;;;;;;;5059970;28;20052;-72
2023/10/26 12:49:56;;;;;;;1.00;0.60;;;;;;;;;;5060023;28;20091;-69
2023/10/26 12:52:23;;;;;;;1.48;0.60;;;;;;;;;;5057603;28;20465;-72
2023/10/26 12:54:49;;;;;;;0.60;0.40;;;;;;;;;;5054854;28;20132;-71
2023/10/26 12:57:16;;;;;;;1.52;0.47;;;;;;;;;;5054554;28;20060;-70
2023/10/26 12:59:43;;;;;;;1.42;0.40;;;;;;;;;;5060044;28;20045;-70
2023/10/26 13:02:09;;;;;;;1.55;0.50;;;;;;;;;;5060079;28;20045;-69
2023/10/26 13:04:36;;;;;;;1.08;0.40;;;;;;;;;;5058304;28;20044;-70
2023/10/26 13:07:03;;;;;;;2.72;0.63;;;;;;;;;;5051028;28;20516;-71
2023/10/26 13:09:30;;;;;;;2.25;0.68;;;;;;;;;;5049804;28;20141;-73
2023/10/26 13:11:57;;;;;;;0.60;0.35;;;;;;;;;;5049844;28;20103;-70
2023/10/26 13:14:23;;;;;;;0.70;0.43;;;;;;;;;;5053667;28;20040;-70
2023/10/26 13:16:50;;;;;;;1.73;0.50;;;;;;;;;;5037506;28;20044;-70
2023/10/26 13:19:23;;;;;;;1.58;0.50;;;;;;;;;;5052524;28;20049;-70
2023/10/26 13:21:51;;;;;;;1.60;0.55;;;;;;;;;;5052146;28;20048;-70
2023/10/26 13:24:17;;;;;;;1.42;0.40;;;;;;;;;;5051526;28;20049;-70
2023/10/26 13:26:44;;;;;;;1.15;0.55;;;;;;;;;;5051481;28;20560;-71
2023/10/26 13:29:11;;;;;;;1.42;0.50;;;;;;;;;;5051781;28;20187;-69
2023/10/26 13:31:38;;;;;;;1.90;0.50;;;;;;;;;;5051557;28;20497;-73
2023/10/26 13:34:07;;;;;;;0.88;0.50;;;;;;;;;;5052324;28;20137;-69
2023/10/26 13:36:34;;;;;;;1.13;0.50;;;;;;;;;;5052001;28;20114;-71
2023/10/26 13:39:04;;;;;;;1.27;0.40;;;;;;;;;;5051419;28;20045;-70
2023/10/26 13:41:31;;;;;;;1.98;0.40;;;;;;;;;;5051773;28;20132;-70
2023/10/26 13:43:58;;;;;;;0.80;0.32;;;;;;;;;;5051551;28;20047;-71
2023/10/26 13:46:25;;;;;;;0.75;0.30;;;;;;;;;;5050969;28;20068;-70
2023/10/26 13:48:52;;;;;;;1.05;0.38;;;;;;;;;;5051331;28;20045;-70
2023/10/26 13:51:20;;;;;;;1.67;0.50;;;;;;;;;;5051451;28;20122;-70
2023/10/26 13:53:46;;;;;;;0.95;0.40;;;;;;;;;;5051417;28;20100;-70
2023/10/26 13:56:13;;;;;;;0.52;0.30;;;;;;;;;;5050975;28;20529;-70
2023/10/26 13:58:40;;;;;;;0.85;0.52;;;;;;;;;;5051525;28;20490;-69
2023/10/26 14:01:11;;;;;;;1.95;0.47;;;;;;;;;;5051319;28;20052;-70
2023/10/26 14:03:38;;;;;;;0.30;0.30;;;;;;;;;;5051263;28;20131;-69
2023/10/26 14:06:05;;;;;;;0.90;0.35;;;;;;;;;;5050831;28;20547;-70
2023/10/26 14:08:31;;;;;;;1.67;0.50;;;;;;;;;;5050762;28;20439;-69
2023/10/26 14:10:59;;;;;;;0.60;0.40;;;;;;;;;;5050844;28;20049;-70
2023/10/26 14:13:25;;;;;;;1.33;0.50;;;;;;;;;;5051107;28;20071;-70
2023/10/26 14:15:52;;;;;;;0.40;0.30;;;;;;;;;;5050640;28;20091;-70
2023/10/26 14:18:19;;;;;;;1.38;0.43;;;;;;;;;;5059094;28;20198;-70
2023/10/26 14:20:45;;;;;;;0.65;0.40;;;;;;;;;;5050406;28;20040;-70
2023/10/26 14:23:12;;;;;;;1.60;0.40;;;;;;;;;;5050545;28;20041;-70
2023/10/26 14:25:41;;;;;;;0.20;0.20;;;;;;;;;;5050965;28;20049;-70
2023/10/26 14:28:07;;;;;;;0.82;0.40;;;;;;;;;;5053177;28;20503;-69
2023/10/26 14:30:34;;;;;;;0.52;0.25;;;;;;;;;;5041456;28;20041;-70
2023/10/26 14:33:01;;;;;;;0.52;0.30;;;;;;;;;;5042410;28;20041;-70
2023/10/26 14:35:28;;;;;;;0.50;0.28;;;;;;;;;;5042536;28;20076;-70
2023/10/26 14:37:58;;;;;;;0.32;0.30;;;;;;;;;;5041742;28;20073;-73
2023/10/26 14:40:25;;;;;;;0.77;0.20;;;;;;;;;;5042469;28;20077;-70
2023/10/26 14:42:55;;;;;;;0.30;0.20;;;;;;;;;;5041912;28;20159;-71
2023/10/26 14:45:23;;;;;;;0.57;0.30;;;;;;;;;;5042152;28;20071;-71
2023/10/26 14:47:50;;;;;;;0.52;0.40;;;;;;;;;;5041747;28;20337;-71
2023/10/26 14:50:17;;;;;;;0.52;0.40;;;;;;;;;;5042105;28;20103;-71